aviador You're here:

ETNT Decoded Metar

WITTMUNDHAFEN in GERMANY
Report Time2018-02-25 10:20:00
UTC Time2018-02-25 11:18:16
Flight Rules vfr VFR
Wind080° at 10 kt
W.Decomp.*RWY 08: 10.0 kt HW 0.2 kt LCW
W.Rank080° ranks 9
Current wind is above 080° avg. (6.6)
Visibility9999 m
Phenomena:N/A
Clouds:N/A
Expected CloudBase > 3,600 ft AGL from Temp-Dew spread
CeilingNone
Temp-1°C (ISA -16)
Dew Point-10°C (51% RH)
AAT-7.6°C
QNH1035 hPa
Density Alt-2,618 ft
Elevation39 ft
Report Wrong Elevation
Raw Report
ETNT 251020Z AUTO 08010KT 9999 // ////// M01/M10 Q1035 ///=

Extra information for ETNT:More info

Metar Taf Metar & Taf Last 4 Metars F.Rules Stats Wind Profile Meteogram Temp Stats Airport Information Weather charts Add Link Nearby VenuesMetar ALERT Operation Metar Decoded Social comments